CDT,Max TemperatureF,Mean TemperatureF,Min TemperatureF,Max Dew PointF,MeanDew PointF,Min DewpointF,Max Humidity, Mean Humidity, Min Humidity, Max Sea Level PressureIn, Mean Sea Level PressureIn, Min Sea Level PressureIn, Max VisibilityMiles, Mean VisibilityMiles, Min VisibilityMiles, Max Wind SpeedMPH, Mean Wind SpeedMPH, Max Gust SpeedMPH,PrecipitationIn, CloudCover, Events, WindDirDegrees
2012-10-1,64,50,37,39,32,27,81,49,24,30.13,30.04,29.89,10,10,8,20,11,28,0.00,2,,299
2012-10-2,71,56,41,39,33,28,76,46,28,29.89,29.69,29.56,10,10,9,37,17,44,0.24,0,,234
2012-10-3,48,40,33,41,36,30,100,86,62,30.13,29.99,29.78,10,8,2,25,13,34,0.94,5,Rain-Snow,351
2012-10-4,35,34,30,36,32,28,100,96,87,30.17,30.12,30.08,10,6,2,34,25,46,1.29,7,Rain-Snow,340
2012-10-5,32,30,28,32,29,27,100,94,86,30.31,30.21,30.14,10,6,0,28,21,38,1.80,8,Rain-Snow,333
2012-10-6,41,29,17,32,25,18,100,83,57,30.33,30.24,30.04,10,10,10,18,9,23,0.00,0,,280
2012-10-7,50,41,32,34,31,27,93,75,50,30.03,29.83,29.69,10,10,10,16,12,21,0.00,6,,241
2012-10-8,46,40,35,43,37,32,100,90,75,29.68,29.57,29.49,10,8,3,28,10,33,0.02,7,Rain,300
2012-10-9,41,34,28,34,30,25,100,89,60,29.97,29.82,29.59,10,9,2,26,16,32,0.19,7,Rain-Snow,320
2012-10-10,37,32,26,36,31,27,100,94,81,29.97,29.92,29.87,10,10,10,15,7,,0.00,5,Rain,268
2012-10-11,39,29,19,32,24,18,100,79,52,30.32,30.19,29.97,10,10,10,20,10,24,0.00,1,,317
2012-10-12,48,36,23,27,24,18,86,65,37,30.31,30.03,29.71,10,10,10,32,16,40,0.00,2,,183
2012-10-13,55,42,28,34,29,23,93,65,38,29.90,29.71,29.60,10,10,7,18,11,23,0.00,0,,353
2012-10-14,55,44,32,45,36,32,100,88,51,29.96,29.91,29.86,10,8,0,13,8,,0.06,4,Fog-Rain,324
2012-10-15,64,50,37,46,41,36,100,76,42,29.86,29.66,29.52,10,10,5,24,13,32,0.00,2,Rain,204
2012-10-16,64,48,32,48,42,32,100,78,48,29.55,29.41,29.20,10,9,2,14,7,18,0.00,0,,190
2012-10-17,51,48,44,50,47,45,100,99,76,29.21,29.14,29.11,10,5,2,29,14,39,0.81,8,Rain,281
2012-10-18,46,42,37,46,41,37,100,100,100,29.77,29.46,29.15,9,4,2,40,26,54,0.62,8,Rain,351
2012-10-19,39,37,35,39,37,36,100,100,100,29.79,29.76,29.68,10,7,0,28,19,36,0.00,8,Fog,355
2012-10-20,50,44,37,46,41,37,100,95,82,29.68,29.59,29.53,10,9,0,24,12,29,0.00,6,Fog,180
2012-10-21,46,37,28,45,36,28,100,87,57,30.07,29.85,29.61,10,10,10,18,9,26,0.00,2,Rain,298
2012-10-22,41,36,30,37,31,27,100,84,70,30.12,30.06,29.92,10,10,7,17,7,23,0.00,5,Rain,54
2012-10-23,46,42,37,46,42,37,100,100,100,29.91,29.71,29.61,10,6,1,22,14,29,0.07,8,Rain,141
2012-10-24,41,34,28,41,32,27,100,93,80,29.98,29.89,29.74,10,10,5,21,16,26,0.00,7,,285
2012-10-25,35,32,28,28,26,25,93,81,65,30.05,29.95,29.91,10,10,9,29,16,37,0.00,6,Rain,295
2012-10-26,32,28,24,23,19,16,86,71,51,30.21,30.16,30.06,10,10,10,30,20,39,0.00,7,,293
2012-10-27,30,24,17,19,16,12,100,73,51,30.27,30.23,30.19,10,10,10,16,8,21,0.00,6,,298
2012-10-28,32,23,14,25,17,10,93,76,55,30.27,30.23,30.18,10,10,9,17,8,22,0.00,5,,108
2012-10-29,41,34,26,36,31,25,100,94,76,30.17,30.13,30.10,10,8,3,17,14,22,0.01,5,Snow,114
2012-10-30,41,36,32,37,32,28,100,89,70,30.10,30.06,29.99,10,9,2,26,14,31,0.00,7,Rain,146
2012-10-31,44,36,28,45,33,23,100,90,75,30.12,30.00,29.93,10,9,3,22,12,26,0.00,6,Rain,317